Terminal Aerodrome Forecast
Issued by NWS Atlanta, GA

Home | Current Version | Previous Version | Text Only | Print | Product List | Glossary On
Versions: 1 2 3 4 5 6 7 8 9 10 11 12 13 14 15 16 17 18 19 20 21 22 23 24 25 26 27 28 29 30 31 32 33 34 35 36 37 38
138
FTAK31 PAJN 051321 AAA
TAFAHN
TAF AMD
PAHN 051321Z 0513/0612 08008G15KT P6SM VCSH SCT015 BKN025 OVC040
     FM051500 09012G22KT P6SM -RA BKN015 OVC025
     FM052000 10010G17KT P6SM VCSH SCT015 OVC040
     FM060100 10010G18KT P6SM -RA BKN020 OVC030
     FM060400 10010G20KT 6SM -RA BR BKN015 OVC025
      AMD LTD TO CLD VIS AND WIND=

USA.gov is the U.S. government's official web portal to all federal, state and local government web resources and services.